Time;durP1;ratioP1;P1;durP2;ratioP2;P2;SDS_P1;SDS_P2;PMS_P1;PMS_P2;Temp;Humidity;BMP_temperature;BMP_pressure;BME280_temperature;BME280_humidity;BME280_pressure;Samples;Min_cycle;Max_cycle;Signal;HPM_P1;HPM_P2
2021/12/08 00:01:33;;;;;;;6.97;3.40;;;2.50;99.90;;;;;;5031740;28;20503;-71
2021/12/08 00:04:00;;;;;;;15.53;4.07;;;2.40;99.90;;;;;;5028892;28;20503;-71
2021/12/08 00:06:26;;;;;;;4.50;3.10;;;2.40;99.90;;;;;;5030112;28;20464;-71
2021/12/08 00:09:05;;;;;;;6.43;3.40;;;2.40;99.90;;;;;;5031559;28;20458;-71
2021/12/08 00:14:16;;;;;;;4.50;2.77;;;2.40;99.90;;;;;;5039600;28;20449;-71
2021/12/08 00:16:43;;;;;;;8.00;3.37;;;2.40;99.90;;;;;;5030254;28;20542;-71
2021/12/08 00:19:10;;;;;;;6.20;3.37;;;2.40;99.90;;;;;;5037385;28;20445;-71
2021/12/08 00:21:36;;;;;;;5.80;3.00;;;2.40;99.90;;;;;;5032219;28;20863;-71
2021/12/08 00:24:05;;;;;;;6.23;3.00;;;2.40;99.90;;;;;;5038928;28;20456;-71
2021/12/08 00:26:32;;;;;;;3.60;2.90;;;2.40;99.90;;;;;;5033847;28;20976;-71
2021/12/08 00:28:58;;;;;;;5.50;3.60;;;2.40;99.90;;;;;;5034033;28;20453;-71
2021/12/08 00:31:25;;;;;;;4.27;2.93;;;2.40;99.90;;;;;;5038567;28;20452;-71
2021/12/08 00:33:52;;;;;;;3.37;3.07;;;2.40;99.90;;;;;;5041741;28;20449;-71
2021/12/08 00:36:25;;;;;;;7.73;3.50;;;2.40;99.90;;;;;;5033401;28;20485;-71
2021/12/08 00:38:52;;;;;;;6.00;3.40;;;2.40;99.90;;;;;;5033713;28;20973;-71
2021/12/08 00:41:20;;;;;;;10.47;3.50;;;2.40;99.90;;;;;;5036834;28;20453;-71
2021/12/08 00:43:47;;;;;;;3.93;2.80;;;2.40;99.90;;;;;;5053851;28;20948;-71
2021/12/08 00:46:13;;;;;;;6.23;3.17;;;2.30;99.90;;;;;;5051876;28;20472;-71
2021/12/08 00:48:46;;;;;;;5.07;3.63;;;2.40;99.90;;;;;;5053814;28;20867;-71
2021/12/08 00:51:12;;;;;;;3.73;3.00;;;2.40;99.90;;;;;;5044955;28;20456;-71
2021/12/08 00:53:39;;;;;;;5.60;3.50;;;2.40;99.90;;;;;;5053471;28;20456;-71
2021/12/08 00:56:06;;;;;;;7.07;3.17;;;2.40;99.90;;;;;;5021771;28;20487;-71
2021/12/08 00:58:34;;;;;;;10.40;3.20;;;2.40;99.90;;;;;;5053068;28;20497;-71
2021/12/08 01:01:01;;;;;;;9.80;2.60;;;2.30;99.90;;;;;;5051358;28;20460;-72
2021/12/08 01:03:27;;;;;;;6.97;3.37;;;2.30;99.90;;;;;;5033657;28;20457;-71
2021/12/08 01:05:57;;;;;;;8.47;3.73;;;2.20;99.90;;;;;;5033255;28;20473;-71
2021/12/08 01:08:26;;;;;;;6.17;3.57;;;2.30;99.90;;;;;;5052102;28;20453;-71
2021/12/08 01:10:55;;;;;;;4.13;2.90;;;2.20;99.90;;;;;;5034032;28;20958;-72
2021/12/08 01:13:24;;;;;;;4.07;3.33;;;2.30;99.90;;;;;;5049955;28;20507;-72
2021/12/08 01:15:55;;;;;;;3.90;3.30;;;2.30;99.90;;;;;;5032560;28;20488;-72
2021/12/08 01:18:23;;;;;;;7.73;3.00;;;2.30;99.90;;;;;;5045910;28;20835;-72
2021/12/08 01:20:52;;;;;;;5.40;2.70;;;2.30;99.90;;;;;;5052492;28;20463;-72
2021/12/08 01:23:19;;;;;;;5.40;3.00;;;2.30;99.90;;;;;;5026267;28;20878;-72
2021/12/08 01:25:46;;;;;;;4.83;2.83;;;2.30;99.90;;;;;;5032605;28;20477;-72
2021/12/08 01:28:13;;;;;;;4.37;2.60;;;2.20;99.90;;;;;;5036176;28;20448;-72
2021/12/08 01:30:40;;;;;;;9.90;3.60;;;2.20;99.90;;;;;;5051379;28;21112;-72
2021/12/08 01:33:08;;;;;;;6.30;2.70;;;2.10;99.90;;;;;;5034776;28;20946;-72
2021/12/08 01:35:35;;;;;;;9.13;3.53;;;2.10;99.90;;;;;;5039161;28;20506;-72
2021/12/08 01:38:02;;;;;;;7.03;2.83;;;2.10;99.90;;;;;;5042742;28;20572;-72
2021/12/08 01:40:29;;;;;;;8.17;2.60;;;2.00;99.90;;;;;;5032399;28;20464;-72
2021/12/08 01:42:58;;;;;;;6.00;2.87;;;2.00;99.90;;;;;;5048983;28;20506;-71
2021/12/08 01:48:17;;;;;;;8.50;3.30;;;1.90;99.90;;;;;;5032783;28;20440;-72
2021/12/08 01:50:49;;;;;;;5.13;3.17;;;1.80;99.90;;;;;;5032871;28;20457;-72
2021/12/08 01:53:16;;;;;;;11.33;2.90;;;1.80;99.90;;;;;;5048765;28;20445;-72
2021/12/08 01:55:43;;;;;;;8.30;3.70;;;1.70;99.90;;;;;;5032234;28;20504;-72
2021/12/08 01:58:11;;;;;;;6.43;3.10;;;1.70;99.90;;;;;;5032451;28;20481;-72
2021/12/08 02:00:41;;;;;;;7.10;3.70;;;1.70;99.90;;;;;;5032756;28;20511;-72
2021/12/08 02:03:09;;;;;;;5.03;3.20;;;1.60;99.90;;;;;;5050551;28;20453;-72
2021/12/08 02:05:37;;;;;;;5.33;3.20;;;1.50;99.90;;;;;;5045894;28;20938;-72
2021/12/08 02:08:05;;;;;;;6.30;3.63;;;1.50;99.90;;;;;;5031621;28;20445;-72
2021/12/08 02:10:32;;;;;;;5.63;3.10;;;1.50;99.90;;;;;;5043579;28;20456;-72
2021/12/08 02:12:59;;;;;;;8.20;3.30;;;1.40;99.90;;;;;;5034272;28;20503;-72
2021/12/08 02:15:26;;;;;;;4.80;3.13;;;1.40;99.90;;;;;;5033251;28;20503;-72
2021/12/08 02:17:55;;;;;;;9.60;3.60;;;1.40;99.90;;;;;;5031954;28;20967;-72
2021/12/08 02:20:25;;;;;;;6.40;3.57;;;1.30;99.90;;;;;;5051553;28;20457;-72
2021/12/08 02:22:54;;;;;;;5.40;4.00;;;1.30;99.90;;;;;;5035278;28;20874;-72
2021/12/08 02:25:23;;;;;;;6.37;3.20;;;1.30;99.90;;;;;;5044710;28;20865;-72
2021/12/08 02:27:51;;;;;;;6.40;2.97;;;1.30;99.90;;;;;;5036387;28;20916;-72
2021/12/08 02:30:25;;;;;;;6.03;3.47;;;1.30;99.90;;;;;;5041504;28;20520;-72
2021/12/08 02:46:46;;;;;;;12.80;4.20;;;1.10;99.90;;;;;;5031177;28;20480;-72
2021/12/08 02:49:13;;;;;;;6.37;4.00;;;1.10;99.90;;;;;;5032566;28;20861;-72
2021/12/08 02:51:41;;;;;;;9.60;4.27;;;1.10;99.90;;;;;;5047813;28;20952;-72
2021/12/08 02:54:10;;;;;;;8.03;3.70;;;1.10;99.90;;;;;;5050844;28;20567;-72
2021/12/08 02:56:36;;;;;;;3.87;3.57;;;1.20;99.90;;;;;;5042532;28;20493;-72
2021/12/08 02:59:04;;;;;;;4.77;4.23;;;1.10;99.90;;;;;;5034527;28;20449;-72
2021/12/08 03:01:32;;;;;;;11.03;4.33;;;1.20;99.90;;;;;;5035613;28;20453;-72
2021/12/08 03:03:58;;;;;;;8.70;4.40;;;1.10;99.90;;;;;;5031232;28;20845;-72
2021/12/08 03:06:25;;;;;;;5.43;4.60;;;1.10;99.90;;;;;;5030657;28;20882;-72
2021/12/08 03:08:52;;;;;;;4.47;4.07;;;1.10;99.90;;;;;;5031337;28;20454;-72
2021/12/08 03:11:20;;;;;;;9.37;4.47;;;1.10;99.90;;;;;;5032342;28;20519;-72
2021/12/08 03:14:00;;;;;;;5.40;4.53;;;1.10;99.90;;;;;;5014535;28;20966;-72
2021/12/08 03:16:27;;;;;;;5.53;4.23;;;1.00;99.90;;;;;;5019778;28;20477;-72
2021/12/08 03:18:55;;;;;;;5.10;3.73;;;1.00;99.90;;;;;;5031096;28;20499;-72
2021/12/08 03:21:27;;;;;;;21.40;4.80;;;1.00;99.90;;;;;;5047841;28;20526;-72
2021/12/08 03:24:05;;;;;;;9.43;4.43;;;1.00;99.90;;;;;;5016885;28;20511;-72
2021/12/08 03:26:35;;;;;;;5.73;3.70;;;1.20;99.90;;;;;;5030687;28;20543;-72
2021/12/08 03:29:07;;;;;;;4.30;3.80;;;1.00;99.90;;;;;;5030498;28;20476;-72
2021/12/08 03:31:40;;;;;;;7.90;4.27;;;1.10;99.90;;;;;;5030696;28;20453;-72
2021/12/08 03:34:07;;;;;;;6.33;4.27;;;1.10;99.90;;;;;;5036729;28;20459;-72
2021/12/08 03:36:34;;;;;;;7.13;3.97;;;1.10;99.90;;;;;;5050335;28;20472;-72
2021/12/08 03:39:01;;;;;;;7.47;4.83;;;1.10;99.90;;;;;;5047823;28;20533;-72
2021/12/08 03:41:32;;;;;;;5.57;4.20;;;1.10;99.90;;;;;;5046367;28;20510;-72
2021/12/08 03:44:01;;;;;;;10.83;4.87;;;1.20;99.90;;;;;;5046396;28;20461;-72
2021/12/08 03:46:30;;;;;;;22.77;5.20;;;1.10;99.90;;;;;;5019084;28;20470;-72
2021/12/08 03:48:57;;;;;;;11.87;4.63;;;1.10;99.90;;;;;;5023790;28;20481;-72
2021/12/08 03:51:24;;;;;;;5.00;4.07;;;1.10;99.90;;;;;;5047224;28;20452;-72
2021/12/08 03:53:51;;;;;;;9.17;5.90;;;1.00;99.90;;;;;;5050621;28;20862;-72
2021/12/08 03:56:18;;;;;;;9.30;5.50;;;1.10;99.90;;;;;;5034508;28;20473;-72
2021/12/08 03:58:44;;;;;;;8.23;5.20;;;1.20;99.90;;;;;;5032026;28;20484;-72
2021/12/08 04:01:12;;;;;;;14.13;5.50;;;1.10;99.90;;;;;;5049463;28;20456;-72
2021/12/08 04:03:40;;;;;;;8.40;5.53;;;1.10;99.90;;;;;;5036087;28;20905;-72
2021/12/08 04:06:24;;;;;;;10.30;4.70;;;1.20;99.90;;;;;;5033643;28;20518;-73
2021/12/08 04:08:56;;;;;;;6.83;5.40;;;1.10;99.90;;;;;;5034699;28;20464;-72
2021/12/08 04:11:23;;;;;;;11.77;5.13;;;1.10;99.90;;;;;;5050265;28;20460;-72
2021/12/08 04:13:52;;;;;;;9.43;5.73;;;1.10;99.90;;;;;;5035420;28;21198;-72
2021/12/08 04:16:24;;;;;;;7.80;5.77;;;1.20;99.90;;;;;;5034230;28;20469;-72
2021/12/08 04:18:52;;;;;;;9.03;5.60;;;1.20;99.90;;;;;;5034226;28;20991;-72
2021/12/08 04:21:20;;;;;;;8.10;6.00;;;1.20;99.90;;;;;;5035472;28;20795;-72
2021/12/08 04:23:48;;;;;;;9.70;6.57;;;1.20;99.90;;;;;;5034046;28;20456;-72
2021/12/08 04:26:26;;;;;;;10.87;5.90;;;1.40;99.90;;;;;;5033913;28;21066;-72
2021/12/08 04:28:53;;;;;;;15.27;5.53;;;1.20;99.90;;;;;;5034043;28;20441;-72
2021/12/08 04:31:23;;;;;;;11.00;6.60;;;1.30;99.90;;;;;;5034084;28;20453;-72
2021/12/08 04:33:55;;;;;;;8.93;6.37;;;1.20;99.90;;;;;;5034747;28;20468;-71
2021/12/08 04:36:24;;;;;;;14.53;7.10;;;1.30;99.90;;;;;;5034244;28;20472;-72
2021/12/08 04:38:56;;;;;;;11.93;6.00;;;1.30;99.90;;;;;;5034410;28;20488;-72
2021/12/08 04:41:30;;;;;;;16.33;6.57;;;1.20;99.90;;;;;;5049123;28;20460;-72
2021/12/08 04:44:05;;;;;;;15.27;6.93;;;1.20;99.90;;;;;;5050642;28;20464;-72
2021/12/08 04:46:55;;;;;;;11.03;6.90;;;1.30;99.90;;;;;;5034034;28;20476;-71
2021/12/08 04:49:40;;;;;;;12.33;6.37;;;1.30;99.90;;;;;;5034277;28;20445;-72
2021/12/08 04:52:16;;;;;;;10.97;6.50;;;1.30;99.90;;;;;;5018907;28;20819;-72
2021/12/08 05:00:42;;;;;;;12.33;7.07;;;1.40;99.90;;;;;;5039003;28;20447;-71
2021/12/08 05:06:16;;;;;;;16.63;7.80;;;1.40;99.90;;;;;;5027552;28;20527;-72
2021/12/08 05:08:44;;;;;;;13.50;6.87;;;1.30;99.90;;;;;;5041604;28;20518;-72
2021/12/08 05:11:14;;;;;;;18.83;6.77;;;1.40;99.90;;;;;;5038240;28;20503;-72
2021/12/08 05:13:41;;;;;;;11.87;6.90;;;1.40;99.90;;;;;;5034088;28;20446;-72
2021/12/08 05:16:10;;;;;;;15.27;7.20;;;1.40;99.90;;;;;;5033316;28;20465;-72
2021/12/08 05:18:41;;;;;;;10.57;6.37;;;1.40;99.90;;;;;;5033778;28;20535;-72
2021/12/08 05:21:15;;;;;;;11.80;6.43;;;1.40;99.90;;;;;;5047465;28;20487;-72
2021/12/08 05:23:44;;;;;;;15.50;6.63;;;1.40;99.90;;;;;;5045214;28;20495;-72
2021/12/08 05:26:16;;;;;;;13.87;6.20;;;1.30;99.90;;;;;;5033339;28;20481;-72
2021/12/08 05:28:47;;;;;;;13.27;6.27;;;1.50;99.90;;;;;;5033199;28;20511;-72
2021/12/08 05:31:18;;;;;;;7.20;4.20;;;1.40;99.90;;;;;;5045978;28;20452;-72
2021/12/08 05:33:46;;;;;;;9.87;6.07;;;1.40;99.90;;;;;;5053510;28;20456;-72
2021/12/08 05:36:15;;;;;;;9.07;5.83;;;1.40;99.90;;;;;;5053087;28;20867;-72
2021/12/08 05:38:43;;;;;;;12.87;6.00;;;1.40;99.90;;;;;;5053269;28;20538;-71
2021/12/08 05:41:13;;;;;;;9.67;6.37;;;1.40;99.90;;;;;;5035154;28;20901;-72
2021/12/08 05:43:40;;;;;;;14.23;6.50;;;1.40;99.90;;;;;;5033437;28;20461;-72
2021/12/08 05:46:08;;;;;;;10.83;6.37;;;1.40;99.90;;;;;;5032766;28;20473;-72
2021/12/08 05:48:35;;;;;;;10.77;6.00;;;1.40;99.90;;;;;;5033402;28;20472;-72
2021/12/08 05:51:08;;;;;;;8.87;5.90;;;1.40;99.90;;;;;;5046756;28;20475;-72
2021/12/08 05:53:38;;;;;;;9.07;6.27;;;1.40;99.90;;;;;;5052776;28;20566;-71
2021/12/08 05:56:06;;;;;;;9.93;6.47;;;1.40;99.90;;;;;;5038639;28;21008;-72
2021/12/08 05:58:33;;;;;;;10.60;6.23;;;1.40;99.90;;;;;;5033156;28;20485;-72
2021/12/08 06:01:06;;;;;;;11.40;6.27;;;1.40;99.90;;;;;;5038339;28;20875;-72
2021/12/08 06:03:33;;;;;;;12.37;6.57;;;1.50;99.90;;;;;;5032746;28;20449;-71
2021/12/08 06:06:00;;;;;;;12.00;7.10;;;1.50;99.90;;;;;;5030938;28;20474;-71
2021/12/08 06:08:29;;;;;;;11.00;7.03;;;1.50;99.90;;;;;;5032709;28;20503;-72
2021/12/08 06:10:58;;;;;;;10.03;6.70;;;1.50;99.90;;;;;;5033619;28;20455;-73
2021/12/08 06:13:25;;;;;;;9.17;6.40;;;1.50;99.90;;;;;;5034601;28;20458;-73
2021/12/08 06:15:52;;;;;;;9.40;6.50;;;1.50;99.90;;;;;;5032141;28;20527;-73
2021/12/08 06:18:23;;;;;;;8.27;6.13;;;1.60;99.90;;;;;;5032371;28;20547;-73
2021/12/08 06:20:50;;;;;;;10.40;7.17;;;1.50;99.90;;;;;;5044055;28;20514;-73
2021/12/08 06:23:17;;;;;;;10.47;7.27;;;1.50;99.90;;;;;;5035151;28;20457;-73
2021/12/08 06:25:45;;;;;;;11.90;7.03;;;1.60;99.90;;;;;;5031666;28;20507;-72
2021/12/08 06:28:12;;;;;;;14.77;5.70;;;1.60;99.90;;;;;;5032211;28;20491;-72
2021/12/08 06:30:41;;;;;;;9.20;6.97;;;1.50;99.90;;;;;;5033119;28;20457;-72
2021/12/08 06:33:08;;;;;;;16.77;7.60;;;1.50;99.90;;;;;;5033303;28;20812;-72
2021/12/08 06:35:40;;;;;;;13.80;7.03;;;1.50;99.90;;;;;;5029798;28;20945;-72
2021/12/08 06:38:08;;;;;;;18.47;8.03;;;1.50;99.90;;;;;;5029048;28;20571;-72
2021/12/08 06:40:39;;;;;;;10.87;6.50;;;1.50;99.90;;;;;;5031732;28;20480;-72
2021/12/08 06:43:12;;;;;;;16.33;6.50;;;1.50;99.90;;;;;;5039112;28;20453;-73
2021/12/08 06:45:41;;;;;;;11.00;6.90;;;1.50;99.90;;;;;;5031879;28;20755;-72
2021/12/08 06:48:13;;;;;;;11.87;7.33;;;1.50;99.90;;;;;;5031761;28;20799;-72
2021/12/08 06:50:44;;;;;;;21.50;7.60;;;1.50;99.90;;;;;;5031645;28;20571;-72
2021/12/08 06:53:11;;;;;;;14.73;7.40;;;1.50;99.90;;;;;;5038046;28;20473;-74
2021/12/08 06:55:40;;;;;;;16.47;7.33;;;1.60;99.90;;;;;;5050200;28;20479;-73
2021/12/08 06:58:11;;;;;;;13.30;7.17;;;1.60;99.90;;;;;;5051105;28;20878;-73
2021/12/08 07:00:53;;;;;;;13.00;7.70;;;1.60;99.90;;;;;;5042049;28;20519;-74
2021/12/08 07:03:38;;;;;;;11.77;7.30;;;1.60;99.90;;;;;;5043793;28;20476;-73
2021/12/08 07:06:29;;;;;;;11.13;7.00;;;1.60;99.90;;;;;;5030254;28;21060;-73
2021/12/08 07:08:58;;;;;;;14.80;7.17;;;1.70;99.90;;;;;;5031061;28;20877;-73
2021/12/08 07:11:26;;;;;;;13.23;7.43;;;1.80;99.90;;;;;;5033296;28;20510;-72
2021/12/08 07:13:57;;;;;;;14.43;8.10;;;1.70;99.90;;;;;;5032741;28;20453;-72
2021/12/08 07:16:27;;;;;;;8.53;6.83;;;1.70;99.90;;;;;;5031103;28;20550;-74
2021/12/08 07:19:00;;;;;;;11.07;6.57;;;1.70;99.90;;;;;;5030260;28;20481;-73
2021/12/08 07:21:30;;;;;;;14.00;7.90;;;1.70;99.90;;;;;;5038128;28;20456;-73
2021/12/08 07:24:01;;;;;;;17.43;8.07;;;1.70;99.90;;;;;;5031981;28;20453;-72
2021/12/08 07:26:31;;;;;;;13.10;7.50;;;1.70;99.90;;;;;;5029709;28;20489;-72
2021/12/08 07:29:02;;;;;;;12.80;6.60;;;1.80;99.90;;;;;;5030683;28;20467;-72
2021/12/08 07:31:31;;;;;;;8.93;6.53;;;1.80;99.90;;;;;;5025857;28;20485;-72
2021/12/08 07:34:03;;;;;;;10.33;6.27;;;1.80;99.90;;;;;;5029882;28;20512;-70
2021/12/08 07:36:31;;;;;;;11.47;6.77;;;1.80;99.90;;;;;;5036366;28;20529;-70
2021/12/08 07:39:06;;;;;;;12.63;5.87;;;1.80;99.90;;;;;;5027253;28;20493;-69
2021/12/08 07:41:35;;;;;;;12.20;6.57;;;1.80;99.90;;;;;;5031387;28;20491;-70
2021/12/08 07:44:07;;;;;;;14.23;6.40;;;1.80;99.90;;;;;;5028872;28;20508;-70
2021/12/08 07:46:38;;;;;;;10.30;6.10;;;1.90;99.90;;;;;;5044719;28;20896;-71
2021/12/08 07:49:09;;;;;;;14.73;6.70;;;1.90;99.90;;;;;;5010426;28;20450;-71
2021/12/08 07:51:40;;;;;;;13.20;6.17;;;1.90;99.90;;;;;;5039440;28;20483;-72
2021/12/08 07:54:08;;;;;;;11.13;5.80;;;1.90;99.90;;;;;;5045562;28;20503;-69
2021/12/08 07:56:38;;;;;;;13.43;7.00;;;1.90;99.90;;;;;;5045509;28;20518;-70
2021/12/08 07:59:09;;;;;;;21.03;7.07;;;1.90;99.90;;;;;;5049984;28;20534;-70
2021/12/08 08:01:40;;;;;;;14.03;6.80;;;2.00;99.90;;;;;;5031333;28;20457;-70
2021/12/08 08:04:10;;;;;;;10.27;7.07;;;2.00;99.90;;;;;;5036342;28;20454;-70
2021/12/08 08:06:41;;;;;;;12.23;7.50;;;2.00;99.90;;;;;;5030586;28;20572;-70
2021/12/08 08:09:13;;;;;;;9.60;6.80;;;2.10;99.90;;;;;;5030076;28;20584;-71
2021/12/08 08:11:44;;;;;;;11.30;6.20;;;2.10;99.90;;;;;;5046340;28;20963;-71
2021/12/08 08:14:19;;;;;;;13.10;6.40;;;2.10;99.90;;;;;;5039059;28;20477;-71
2021/12/08 08:16:50;;;;;;;17.33;6.30;;;2.10;99.90;;;;;;5029631;28;20472;-71
2021/12/08 08:19:19;;;;;;;6.70;5.60;;;2.10;99.90;;;;;;5030102;28;20571;-71
2021/12/08 08:21:51;;;;;;;8.07;6.30;;;2.10;99.90;;;;;;5031224;28;20458;-72
2021/12/08 08:24:19;;;;;;;10.00;5.30;;;2.10;99.90;;;;;;5034312;28;20800;-72
2021/12/08 08:26:48;;;;;;;7.57;5.37;;;2.20;99.90;;;;;;5020519;28;20476;-72
2021/12/08 08:29:18;;;;;;;17.73;5.80;;;2.20;99.90;;;;;;5036746;28;20445;-72
2021/12/08 08:31:53;;;;;;;7.90;5.30;;;2.20;99.90;;;;;;5044423;28;20968;-71
2021/12/08 08:34:20;;;;;;;8.13;5.47;;;2.20;99.90;;;;;;5038564;28;20474;-72
2021/12/08 08:36:49;;;;;;;8.47;4.93;;;2.30;99.90;;;;;;5033301;28;21270;-72
2021/12/08 08:39:20;;;;;;;14.70;5.60;;;2.30;99.90;;;;;;5030085;28;20485;-71
2021/12/08 08:41:50;;;;;;;14.33;5.80;;;2.30;99.90;;;;;;5039177;28;20959;-72
2021/12/08 08:44:22;;;;;;;7.97;4.70;;;2.30;99.90;;;;;;5032413;28;20449;-72
2021/12/08 08:46:49;;;;;;;13.20;5.50;;;2.30;99.90;;;;;;5032576;28;20882;-75
2021/12/08 08:49:22;;;;;;;9.43;5.00;;;2.30;99.90;;;;;;5033026;28;20503;-75
2021/12/08 08:51:59;;;;;;;9.23;5.27;;;2.30;99.90;;;;;;5032427;28;20456;-75
2021/12/08 08:54:29;;;;;;;9.37;5.50;;;2.40;99.90;;;;;;5048650;28;20515;-76
2021/12/08 08:57:02;;;;;;;8.20;5.00;;;2.40;99.90;;;;;;5040047;28;20518;-75
2021/12/08 08:59:34;;;;;;;8.80;5.30;;;2.40;99.90;;;;;;5032452;28;20488;-71
2021/12/08 09:02:07;;;;;;;7.97;5.07;;;2.30;99.90;;;;;;5033030;28;20484;-72
2021/12/08 09:04:39;;;;;;;7.67;5.50;;;2.40;99.90;;;;;;5033070;28;20453;-72
2021/12/08 09:07:09;;;;;;;11.80;5.37;;;2.40;99.90;;;;;;5018371;28;20921;-72
2021/12/08 09:09:39;;;;;;;9.40;4.97;;;2.50;99.90;;;;;;5029109;28;20446;-72
2021/12/08 09:12:10;;;;;;;7.20;5.10;;;2.50;99.90;;;;;;5030876;28;20557;-72
2021/12/08 09:14:41;;;;;;;9.70;5.50;;;2.50;99.90;;;;;;5038182;28;20452;-71
2021/12/08 09:17:12;;;;;;;9.67;5.60;;;2.50;99.90;;;;;;5027526;28;20478;-72
2021/12/08 09:19:44;;;;;;;15.13;6.07;;;2.50;99.90;;;;;;5034953;28;20484;-72
2021/12/08 09:22:16;;;;;;;11.53;5.73;;;2.50;99.90;;;;;;5037075;28;20444;-71
2021/12/08 09:24:48;;;;;;;10.27;5.23;;;2.60;99.90;;;;;;5049834;28;20448;-72
2021/12/08 09:27:20;;;;;;;11.30;6.53;;;2.60;99.90;;;;;;5020611;28;20538;-72
2021/12/08 09:29:55;;;;;;;10.47;6.10;;;2.60;99.90;;;;;;5042032;28;20444;-71
2021/12/08 09:32:26;;;;;;;8.43;5.60;;;2.70;99.90;;;;;;5052384;28;20452;-72
2021/12/08 09:34:58;;;;;;;10.10;5.60;;;2.70;99.90;;;;;;5033568;28;20449;-72
2021/12/08 09:37:28;;;;;;;8.67;5.97;;;2.80;99.90;;;;;;5032763;28;20503;-72
2021/12/08 09:39:59;;;;;;;7.77;5.80;;;2.80;99.90;;;;;;5033091;28;20481;-72
2021/12/08 09:42:29;;;;;;;11.80;6.20;;;2.90;99.90;;;;;;5026676;28;20504;-72
2021/12/08 09:45:02;;;;;;;8.80;6.40;;;2.90;99.90;;;;;;5043628;28;20507;-72
2021/12/08 09:47:29;;;;;;;8.57;6.47;;;2.90;99.90;;;;;;5034226;28;20473;-71
2021/12/08 09:49:56;;;;;;;9.77;6.00;;;3.00;99.90;;;;;;5034422;28;20516;-72
2021/12/08 09:52:27;;;;;;;8.67;5.53;;;3.00;99.90;;;;;;5031555;28;20511;-72
2021/12/08 09:54:54;;;;;;;10.73;5.77;;;3.00;99.90;;;;;;5031453;28;20980;-72
2021/12/08 09:57:21;;;;;;;8.47;6.03;;;3.00;99.90;;;;;;5032078;28;20469;-72
2021/12/08 09:59:48;;;;;;;14.93;6.60;;;3.00;99.90;;;;;;5036457;28;20507;-72
2021/12/08 10:02:25;;;;;;;7.40;5.60;;;3.00;99.90;;;;;;5042187;28;20465;-71
2021/12/08 10:04:52;;;;;;;11.33;6.10;;;3.10;99.90;;;;;;5026630;28;20503;-71
2021/12/08 10:07:20;;;;;;;9.37;6.00;;;3.10;99.90;;;;;;5032746;28;20469;-72
2021/12/08 10:09:49;;;;;;;18.63;6.23;;;3.10;99.90;;;;;;5031668;28;20450;-71
2021/12/08 10:12:16;;;;;;;13.20;5.70;;;3.10;99.90;;;;;;5013460;28;20458;-71
2021/12/08 10:14:46;;;;;;;8.83;5.83;;;3.10;99.90;;;;;;5032141;28;21019;-74
2021/12/08 10:17:13;;;;;;;8.17;6.10;;;3.10;99.90;;;;;;5039737;28;20497;-72
2021/12/08 10:19:41;;;;;;;11.10;5.40;;;3.10;99.90;;;;;;5033621;28;20538;-71
2021/12/08 10:22:18;;;;;;;6.67;5.67;;;3.10;99.90;;;;;;5031518;28;20462;-71
2021/12/08 10:25:04;;;;;;;7.67;5.97;;;3.20;99.90;;;;;;5032945;28;20523;-71
2021/12/08 10:27:31;;;;;;;7.73;5.70;;;3.20;99.90;;;;;;5051468;28;20925;-72
2021/12/08 10:30:18;;;;;;;9.53;6.30;;;3.20;99.90;;;;;;5041944;28;20968;-72
2021/12/08 10:32:45;;;;;;;10.13;6.10;;;3.20;99.90;;;;;;5026740;28;20457;-71
2021/12/08 10:35:45;;;;;;;7.03;5.50;;;3.30;99.90;;;;;;5035932;28;21010;-72
2021/12/08 10:38:14;;;;;;;9.53;6.60;;;3.30;99.90;;;;;;5040284;28;20453;-71
2021/12/08 10:40:57;;;;;;;11.63;6.17;;;3.30;99.90;;;;;;5051792;28;20480;-71
2021/12/08 10:43:23;;;;;;;7.40;6.33;;;3.30;99.90;;;;;;5046447;28;20515;-71
2021/12/08 10:46:03;;;;;;;11.83;7.27;;;3.30;99.90;;;;;;5032132;28;20546;-70
2021/12/08 10:48:35;;;;;;;15.67;7.70;;;3.30;99.90;;;;;;5031050;28;20564;-71
2021/12/08 10:56:43;;;;;;;13.07;8.13;;;3.20;99.90;;;;;;5042205;28;20488;-71
2021/12/08 10:59:10;;;;;;;12.33;7.87;;;3.30;99.90;;;;;;5027331;28;20484;-72
2021/12/08 11:01:37;;;;;;;16.23;8.10;;;3.30;99.90;;;;;;5031385;28;20487;-74
2021/12/08 11:04:06;;;;;;;13.30;8.17;;;3.70;99.90;;;;;;5031137;28;20457;-74
2021/12/08 11:06:35;;;;;;;15.00;8.53;;;3.70;99.90;;;;;;5031776;28;20517;-74
2021/12/08 11:09:06;;;;;;;13.80;8.73;;;3.60;99.90;;;;;;5027673;28;20454;-74
2021/12/08 11:11:35;;;;;;;19.20;9.03;;;3.50;99.90;;;;;;5030427;28;20817;-74
2021/12/08 11:14:04;;;;;;;18.10;8.77;;;3.50;99.90;;;;;;5015928;28;20454;-75
2021/12/08 11:16:33;;;;;;;16.73;10.30;;;3.50;99.90;;;;;;5031925;28;20538;-73
2021/12/08 11:19:01;;;;;;;18.63;10.27;;;3.70;99.90;;;;;;5042987;28;20444;-73
2021/12/08 11:21:35;;;;;;;22.70;12.20;;;3.50;99.90;;;;;;5048424;28;20456;-74
2021/12/08 11:24:06;;;;;;;21.17;11.50;;;3.50;99.90;;;;;;5030819;28;20484;-73
2021/12/08 11:26:37;;;;;;;23.57;11.47;;;3.50;99.90;;;;;;5035930;28;20993;-74
2021/12/08 11:29:06;;;;;;;21.03;11.70;;;3.50;99.90;;;;;;5051408;28;20538;-74
2021/12/08 11:31:36;;;;;;;29.83;12.37;;;3.50;99.90;;;;;;5042671;28;20473;-73
2021/12/08 11:34:06;;;;;;;23.77;12.17;;;3.50;99.90;;;;;;5011222;28;20500;-73
2021/12/08 11:36:35;;;;;;;25.40;12.37;;;3.50;99.90;;;;;;5029950;28;20483;-74
2021/12/08 11:39:09;;;;;;;24.03;11.90;;;3.50;99.90;;;;;;5042238;28;20475;-74
2021/12/08 11:41:38;;;;;;;21.70;12.00;;;3.50;99.90;;;;;;5031091;28;20453;-74
2021/12/08 11:44:10;;;;;;;40.53;11.53;;;3.50;99.90;;;;;;5047678;28;20497;-74
2021/12/08 11:46:50;;;;;;;29.97;14.20;;;3.50;99.90;;;;;;5041357;28;20591;-73
2021/12/08 11:49:17;;;;;;;30.03;13.17;;;3.50;99.90;;;;;;5030221;28;20855;-74
2021/12/08 11:51:54;;;;;;;22.27;12.90;;;3.50;99.90;;;;;;5031100;28;20519;-74
2021/12/08 11:54:44;;;;;;;26.57;11.97;;;3.50;99.90;;;;;;5045586;23;20493;-71
2021/12/08 11:57:16;;;;;;;25.67;12.00;;;3.60;99.90;;;;;;5023528;28;20484;-70
2021/12/08 11:59:53;;;;;;;32.37;13.70;;;3.60;99.90;;;;;;5030313;28;20521;-70
2021/12/08 12:02:21;;;;;;;32.57;12.93;;;3.60;99.90;;;;;;5023828;28;20942;-70
2021/12/08 12:04:48;;;;;;;24.77;13.57;;;3.60;99.90;;;;;;5018016;28;20478;-70
2021/12/08 12:07:15;;;;;;;32.40;14.00;;;3.60;99.90;;;;;;5010688;28;20485;-71
2021/12/08 12:09:45;;;;;;;32.67;15.73;;;3.60;99.90;;;;;;5012382;28;20524;-71
2021/12/08 12:12:15;;;;;;;31.10;14.70;;;3.60;99.90;;;;;;4999831;28;20821;-72
2021/12/08 12:14:42;;;;;;;29.43;13.40;;;3.70;99.90;;;;;;5010457;28;20479;-71
2021/12/08 12:17:10;;;;;;;28.50;14.00;;;3.60;99.90;;;;;;5000637;28;20466;-71
2021/12/08 12:19:43;;;;;;;27.10;14.87;;;3.60;99.90;;;;;;5018949;28;20996;-71
2021/12/08 12:22:28;;;;;;;34.80;16.10;;;3.70;99.90;;;;;;5007245;28;20480;-71
2021/12/08 12:25:11;;;;;;;37.00;16.27;;;3.70;99.90;;;;;;5028980;28;21069;-70
2021/12/08 12:27:44;;;;;;;28.00;14.80;;;3.70;99.90;;;;;;5014818;28;20465;-71
2021/12/08 12:30:19;;;;;;;25.40;14.43;;;3.70;99.90;;;;;;5004288;28;20473;-70
2021/12/08 12:32:48;;;;;;;26.53;13.20;;;3.70;99.90;;;;;;5014778;28;20662;-70
2021/12/08 12:35:18;;;;;;;27.33;14.77;;;3.70;99.90;;;;;;5026158;28;20469;-71
2021/12/08 12:37:46;;;;;;;30.70;14.70;;;3.70;99.90;;;;;;5025082;28;20515;-70
2021/12/08 12:40:17;;;;;;;28.90;14.50;;;3.70;99.90;;;;;;5033509;28;20481;-70
2021/12/08 12:42:47;;;;;;;32.37;14.70;;;3.70;99.90;;;;;;5023860;28;20453;-69
2021/12/08 12:45:15;;;;;;;29.50;14.53;;;3.80;99.90;;;;;;5024746;28;20477;-69
2021/12/08 12:47:43;;;;;;;32.03;14.30;;;3.80;99.90;;;;;;5013944;28;20462;-67
2021/12/08 12:50:23;;;;;;;26.87;13.80;;;3.90;99.90;;;;;;5012882;28;20446;-68
2021/12/08 12:52:52;;;;;;;32.27;15.50;;;3.90;99.90;;;;;;5023709;28;20454;-69
2021/12/08 12:55:24;;;;;;;27.30;14.60;;;3.90;99.90;;;;;;5016178;28;20489;-70
2021/12/08 12:58:16;;;;;;;29.70;15.50;;;3.90;99.90;;;;;;5012818;28;20458;-70
2021/12/08 13:00:47;;;;;;;32.23;13.77;;;4.00;99.90;;;;;;5013710;28;20484;-71
2021/12/08 13:03:39;;;;;;;33.13;16.03;;;4.00;99.90;;;;;;5012234;28;20453;-70
2021/12/08 13:06:08;;;;;;;28.80;14.87;;;4.00;99.90;;;;;;5025286;28;20508;-70
2021/12/08 13:08:36;;;;;;;32.40;15.10;;;4.00;99.90;;;;;;5012084;28;20485;-71
2021/12/08 13:11:12;;;;;;;37.23;16.10;;;4.00;99.90;;;;;;5018000;28;20451;-72
2021/12/08 13:13:49;;;;;;;29.30;15.20;;;4.00;99.90;;;;;;5010711;28;20465;-72
2021/12/08 13:16:25;;;;;;;34.10;15.50;;;4.00;99.90;;;;;;5008863;28;20446;-71
2021/12/08 13:18:58;;;;;;;33.97;18.40;;;4.00;99.90;;;;;;5010223;28;20458;-72
2021/12/08 13:21:41;;;;;;;28.13;15.20;;;4.00;99.90;;;;;;5012055;28;20540;-72
2021/12/08 13:24:38;;;;;;;37.70;17.00;;;4.00;99.90;;;;;;5015455;28;20812;-71
2021/12/08 13:27:08;;;;;;;43.67;16.47;;;4.10;99.90;;;;;;5016611;28;20563;-69
2021/12/08 13:29:37;;;;;;;35.20;16.40;;;4.00;99.90;;;;;;5012740;28;20457;-70
2021/12/08 13:32:12;;;;;;;35.13;16.40;;;4.10;99.90;;;;;;5019506;28;20867;-70
2021/12/08 13:34:42;;;;;;;33.40;16.07;;;4.10;99.90;;;;;;5031947;28;20449;-70
2021/12/08 13:37:20;;;;;;;36.77;16.90;;;4.10;99.90;;;;;;5015594;28;20467;-69
2021/12/08 13:39:49;;;;;;;38.17;16.13;;;4.10;99.90;;;;;;5010909;28;20458;-70
2021/12/08 13:42:26;;;;;;;33.97;15.57;;;4.10;99.90;;;;;;5009234;28;20454;-70